sensor_id;sensor_type;location;lat;lon;timestamp;P1;durP1;ratioP1;P2;durP2;ratioP2
77701;SDS011;66868;42.708;23.404;2024-01-30T00:01:39;25.53;;;11.23;;
77701;SDS011;66868;42.708;23.404;2024-01-30T00:04:04;7.83;;;5.10;;
77701;SDS011;66868;42.708;23.404;2024-01-30T00:06:30;7.97;;;5.07;;
77701;SDS011;66868;42.708;23.404;2024-01-30T00:08:56;6.60;;;5.00;;
77701;SDS011;66868;42.708;23.404;2024-01-30T00:11:22;5.77;;;4.73;;
77701;SDS011;66868;42.708;23.404;2024-01-30T00:13:48;8.37;;;5.13;;
77701;SDS011;66868;42.708;23.404;2024-01-30T00:16:20;7.80;;;5.30;;
77701;SDS011;66868;42.708;23.404;2024-01-30T00:18:47;8.43;;;5.30;;
77701;SDS011;66868;42.708;23.404;2024-01-30T00:21:12;5.97;;;4.60;;
77701;SDS011;66868;42.708;23.404;2024-01-30T00:23:38;11.43;;;7.27;;
77701;SDS011;66868;42.708;23.404;2024-01-30T00:26:03;10.40;;;5.97;;
77701;SDS011;66868;42.708;23.404;2024-01-30T00:28:30;7.57;;;4.83;;
77701;SDS011;66868;42.708;23.404;2024-01-30T00:30:55;15.23;;;7.17;;
77701;SDS011;66868;42.708;23.404;2024-01-30T00:33:21;16.30;;;7.97;;
77701;SDS011;66868;42.708;23.404;2024-01-30T00:35:46;19.90;;;9.90;;
77701;SDS011;66868;42.708;23.404;2024-01-30T00:38:12;21.17;;;9.30;;
77701;SDS011;66868;42.708;23.404;2024-01-30T00:40:37;31.23;;;12.27;;
77701;SDS011;66868;42.708;23.404;2024-01-30T00:43:03;42.63;;;16.23;;
77701;SDS011;66868;42.708;23.404;2024-01-30T00:45:29;52.03;;;19.57;;
77701;SDS011;66868;42.708;23.404;2024-01-30T00:47:54;104.40;;;31.23;;
77701;SDS011;66868;42.708;23.404;2024-01-30T00:50:19;27.53;;;11.57;;
77701;SDS011;66868;42.708;23.404;2024-01-30T00:52:45;13.67;;;6.83;;
77701;SDS011;66868;42.708;23.404;2024-01-30T00:55:11;7.47;;;5.70;;
77701;SDS011;66868;42.708;23.404;2024-01-30T00:57:36;11.40;;;6.37;;
77701;SDS011;66868;42.708;23.404;2024-01-30T01:00:02;8.33;;;5.57;;
77701;SDS011;66868;42.708;23.404;2024-01-30T01:02:28;10.27;;;5.90;;
77701;SDS011;66868;42.708;23.404;2024-01-30T01:04:54;10.83;;;5.47;;
77701;SDS011;66868;42.708;23.404;2024-01-30T01:07:19;8.73;;;5.83;;
77701;SDS011;66868;42.708;23.404;2024-01-30T01:09:45;9.40;;;5.47;;
77701;SDS011;66868;42.708;23.404;2024-01-30T01:12:10;9.03;;;5.47;;
77701;SDS011;66868;42.708;23.404;2024-01-30T01:14:35;6.63;;;4.90;;
77701;SDS011;66868;42.708;23.404;2024-01-30T01:17:01;4.90;;;4.27;;
77701;SDS011;66868;42.708;23.404;2024-01-30T01:19:27;7.00;;;4.80;;
77701;SDS011;66868;42.708;23.404;2024-01-30T01:21:52;5.87;;;4.27;;
77701;SDS011;66868;42.708;23.404;2024-01-30T01:24:18;6.00;;;4.20;;
77701;SDS011;66868;42.708;23.404;2024-01-30T01:26:43;4.80;;;4.00;;
77701;SDS011;66868;42.708;23.404;2024-01-30T01:29:09;4.97;;;3.87;;
77701;SDS011;66868;42.708;23.404;2024-01-30T01:31:37;4.60;;;3.60;;
77701;SDS011;66868;42.708;23.404;2024-01-30T01:34:12;6.47;;;4.90;;
77701;SDS011;66868;42.708;23.404;2024-01-30T01:36:38;9.87;;;5.80;;
77701;SDS011;66868;42.708;23.404;2024-01-30T01:39:04;5.57;;;4.43;;
77701;SDS011;66868;42.708;23.404;2024-01-30T01:41:30;4.17;;;3.60;;
77701;SDS011;66868;42.708;23.404;2024-01-30T01:43:57;8.97;;;5.07;;
77701;SDS011;66868;42.708;23.404;2024-01-30T01:46:22;6.30;;;5.23;;
77701;SDS011;66868;42.708;23.404;2024-01-30T01:48:48;5.80;;;4.40;;
77701;SDS011;66868;42.708;23.404;2024-01-30T01:51:14;3.87;;;3.57;;
77701;SDS011;66868;42.708;23.404;2024-01-30T01:53:41;6.23;;;4.37;;
77701;SDS011;66868;42.708;23.404;2024-01-30T01:56:06;4.13;;;3.63;;
77701;SDS011;66868;42.708;23.404;2024-01-30T01:58:32;6.13;;;4.57;;
77701;SDS011;66868;42.708;23.404;2024-01-30T02:00:58;5.73;;;4.03;;
77701;SDS011;66868;42.708;23.404;2024-01-30T02:03:24;8.53;;;4.77;;
77701;SDS011;66868;42.708;23.404;2024-01-30T02:05:52;6.20;;;4.60;;
77701;SDS011;66868;42.708;23.404;2024-01-30T02:08:18;8.97;;;6.57;;
77701;SDS011;66868;42.708;23.404;2024-01-30T02:10:43;4.90;;;4.50;;
77701;SDS011;66868;42.708;23.404;2024-01-30T02:13:09;4.23;;;3.83;;
77701;SDS011;66868;42.708;23.404;2024-01-30T02:15:34;4.77;;;4.10;;
77701;SDS011;66868;42.708;23.404;2024-01-30T02:17:59;4.67;;;3.97;;
77701;SDS011;66868;42.708;23.404;2024-01-30T02:20:25;4.10;;;3.33;;
77701;SDS011;66868;42.708;23.404;2024-01-30T02:22:55;3.00;;;2.73;;
77701;SDS011;66868;42.708;23.404;2024-01-30T02:25:29;3.10;;;2.77;;
77701;SDS011;66868;42.708;23.404;2024-01-30T02:27:56;2.80;;;2.60;;
77701;SDS011;66868;42.708;23.404;2024-01-30T02:30:21;5.00;;;3.33;;
77701;SDS011;66868;42.708;23.404;2024-01-30T02:32:46;5.57;;;4.17;;
77701;SDS011;66868;42.708;23.404;2024-01-30T02:35:12;5.50;;;3.70;;
77701;SDS011;66868;42.708;23.404;2024-01-30T02:37:37;6.10;;;4.00;;
77701;SDS011;66868;42.708;23.404;2024-01-30T02:40:03;4.93;;;3.40;;
77701;SDS011;66868;42.708;23.404;2024-01-30T02:42:29;3.50;;;3.20;;
77701;SDS011;66868;42.708;23.404;2024-01-30T02:44:55;4.73;;;3.80;;
77701;SDS011;66868;42.708;23.404;2024-01-30T02:47:20;3.53;;;3.10;;
77701;SDS011;66868;42.708;23.404;2024-01-30T02:49:45;3.33;;;2.90;;
77701;SDS011;66868;42.708;23.404;2024-01-30T02:52:11;6.13;;;4.30;;
77701;SDS011;66868;42.708;23.404;2024-01-30T02:54:36;4.43;;;3.90;;
77701;SDS011;66868;42.708;23.404;2024-01-30T02:57:02;3.90;;;3.60;;
77701;SDS011;66868;42.708;23.404;2024-01-30T02:59:27;4.50;;;3.47;;
77701;SDS011;66868;42.708;23.404;2024-01-30T03:01:53;3.20;;;3.00;;
77701;SDS011;66868;42.708;23.404;2024-01-30T03:04:19;13.67;;;7.47;;
77701;SDS011;66868;42.708;23.404;2024-01-30T03:06:44;12.87;;;7.57;;
77701;SDS011;66868;42.708;23.404;2024-01-30T03:09:11;12.57;;;7.60;;
77701;SDS011;66868;42.708;23.404;2024-01-30T03:11:36;10.53;;;6.10;;
77701;SDS011;66868;42.708;23.404;2024-01-30T03:14:02;10.63;;;6.40;;
77701;SDS011;66868;42.708;23.404;2024-01-30T03:16:29;12.03;;;6.70;;
77701;SDS011;66868;42.708;23.404;2024-01-30T03:18:54;8.73;;;5.63;;
77701;SDS011;66868;42.708;23.404;2024-01-30T03:21:20;13.90;;;7.90;;
77701;SDS011;66868;42.708;23.404;2024-01-30T03:23:45;9.03;;;6.23;;
77701;SDS011;66868;42.708;23.404;2024-01-30T03:26:11;7.63;;;5.50;;
77701;SDS011;66868;42.708;23.404;2024-01-30T03:28:37;14.90;;;6.30;;
77701;SDS011;66868;42.708;23.404;2024-01-30T03:31:03;6.77;;;5.70;;
77701;SDS011;66868;42.708;23.404;2024-01-30T03:33:28;7.93;;;5.83;;
77701;SDS011;66868;42.708;23.404;2024-01-30T03:35:54;18.63;;;5.60;;
77701;SDS011;66868;42.708;23.404;2024-01-30T03:38:19;5.33;;;4.73;;
77701;SDS011;66868;42.708;23.404;2024-01-30T03:40:45;6.50;;;5.00;;
77701;SDS011;66868;42.708;23.404;2024-01-30T03:43:10;8.90;;;4.57;;
77701;SDS011;66868;42.708;23.404;2024-01-30T03:45:36;4.63;;;4.13;;
77701;SDS011;66868;42.708;23.404;2024-01-30T03:48:01;5.50;;;4.53;;
77701;SDS011;66868;42.708;23.404;2024-01-30T03:50:27;5.27;;;4.33;;
77701;SDS011;66868;42.708;23.404;2024-01-30T03:52:53;7.43;;;4.57;;
77701;SDS011;66868;42.708;23.404;2024-01-30T03:55:18;9.13;;;4.53;;
77701;SDS011;66868;42.708;23.404;2024-01-30T03:57:44;7.47;;;5.97;;
77701;SDS011;66868;42.708;23.404;2024-01-30T04:00:09;8.37;;;4.47;;
77701;SDS011;66868;42.708;23.404;2024-01-30T04:02:35;9.33;;;4.37;;
77701;SDS011;66868;42.708;23.404;2024-01-30T04:05:01;12.13;;;5.90;;
77701;SDS011;66868;42.708;23.404;2024-01-30T04:07:26;9.87;;;6.03;;
77701;SDS011;66868;42.708;23.404;2024-01-30T04:09:51;8.80;;;5.67;;
77701;SDS011;66868;42.708;23.404;2024-01-30T04:12:17;16.10;;;7.03;;
77701;SDS011;66868;42.708;23.404;2024-01-30T04:14:42;9.83;;;5.20;;
77701;SDS011;66868;42.708;23.404;2024-01-30T04:17:09;9.90;;;4.90;;
77701;SDS011;66868;42.708;23.404;2024-01-30T04:19:37;14.27;;;7.90;;
77701;SDS011;66868;42.708;23.404;2024-01-30T04:22:03;25.13;;;9.87;;
77701;SDS011;66868;42.708;23.404;2024-01-30T04:24:28;22.57;;;11.20;;
77701;SDS011;66868;42.708;23.404;2024-01-30T04:26:54;26.13;;;11.17;;
77701;SDS011;66868;42.708;23.404;2024-01-30T04:29:19;22.20;;;11.27;;
77701;SDS011;66868;42.708;23.404;2024-01-30T04:31:45;14.33;;;8.20;;
77701;SDS011;66868;42.708;23.404;2024-01-30T04:34:10;21.53;;;9.90;;
77701;SDS011;66868;42.708;23.404;2024-01-30T04:36:36;8.40;;;5.40;;
77701;SDS011;66868;42.708;23.404;2024-01-30T04:39:01;14.97;;;7.13;;
77701;SDS011;66868;42.708;23.404;2024-01-30T04:41:27;13.27;;;8.23;;
77701;SDS011;66868;42.708;23.404;2024-01-30T04:43:56;13.83;;;7.20;;
77701;SDS011;66868;42.708;23.404;2024-01-30T04:46:21;18.80;;;7.93;;
77701;SDS011;66868;42.708;23.404;2024-01-30T04:48:47;25.57;;;9.73;;
77701;SDS011;66868;42.708;23.404;2024-01-30T04:51:12;13.63;;;6.80;;
77701;SDS011;66868;42.708;23.404;2024-01-30T04:53:38;27.93;;;12.47;;
77701;SDS011;66868;42.708;23.404;2024-01-30T04:56:05;8.50;;;4.37;;
77701;SDS011;66868;42.708;23.404;2024-01-30T04:58:30;8.77;;;4.07;;
77701;SDS011;66868;42.708;23.404;2024-01-30T05:00:56;13.50;;;5.33;;
77701;SDS011;66868;42.708;23.404;2024-01-30T05:03:22;14.33;;;8.27;;
77701;SDS011;66868;42.708;23.404;2024-01-30T05:05:49;11.73;;;6.43;;
77701;SDS011;66868;42.708;23.404;2024-01-30T05:08:14;11.70;;;6.10;;
77701;SDS011;66868;42.708;23.404;2024-01-30T05:10:40;9.67;;;4.90;;
77701;SDS011;66868;42.708;23.404;2024-01-30T05:13:05;4.17;;;3.10;;
77701;SDS011;66868;42.708;23.404;2024-01-30T05:15:31;7.73;;;5.47;;
77701;SDS011;66868;42.708;23.404;2024-01-30T05:17:56;7.47;;;6.73;;
77701;SDS011;66868;42.708;23.404;2024-01-30T05:20:22;5.20;;;4.70;;
77701;SDS011;66868;42.708;23.404;2024-01-30T05:22:47;11.00;;;6.83;;
77701;SDS011;66868;42.708;23.404;2024-01-30T05:25:13;18.17;;;9.73;;
77701;SDS011;66868;42.708;23.404;2024-01-30T05:30:22;13.23;;;8.17;;
77701;SDS011;66868;42.708;23.404;2024-01-30T05:32:48;26.73;;;13.30;;
77701;SDS011;66868;42.708;23.404;2024-01-30T05:35:14;16.77;;;9.43;;
77701;SDS011;66868;42.708;23.404;2024-01-30T05:37:40;16.77;;;8.40;;
77701;SDS011;66868;42.708;23.404;2024-01-30T05:40:05;14.47;;;9.17;;
77701;SDS011;66868;42.708;23.404;2024-01-30T05:42:31;13.03;;;8.47;;
77701;SDS011;66868;42.708;23.404;2024-01-30T05:44:57;18.63;;;9.20;;
77701;SDS011;66868;42.708;23.404;2024-01-30T05:47:22;16.90;;;8.93;;
77701;SDS011;66868;42.708;23.404;2024-01-30T05:49:48;17.20;;;9.33;;
77701;SDS011;66868;42.708;23.404;2024-01-30T05:52:13;28.23;;;11.50;;
77701;SDS011;66868;42.708;23.404;2024-01-30T05:54:40;29.43;;;12.50;;
77701;SDS011;66868;42.708;23.404;2024-01-30T05:57:05;31.90;;;12.93;;
77701;SDS011;66868;42.708;23.404;2024-01-30T05:59:31;82.63;;;22.83;;
77701;SDS011;66868;42.708;23.404;2024-01-30T06:01:57;99.93;;;28.23;;
77701;SDS011;66868;42.708;23.404;2024-01-30T06:04:23;75.57;;;23.10;;
77701;SDS011;66868;42.708;23.404;2024-01-30T06:06:48;116.07;;;28.63;;
77701;SDS011;66868;42.708;23.404;2024-01-30T06:09:14;85.50;;;27.93;;
77701;SDS011;66868;42.708;23.404;2024-01-30T06:11:39;62.77;;;19.43;;
77701;SDS011;66868;42.708;23.404;2024-01-30T06:14:05;95.07;;;25.60;;
77701;SDS011;66868;42.708;23.404;2024-01-30T06:16:30;87.63;;;27.37;;
77701;SDS011;66868;42.708;23.404;2024-01-30T06:18:56;107.13;;;29.20;;
77701;SDS011;66868;42.708;23.404;2024-01-30T06:21:22;127.57;;;33.17;;
77701;SDS011;66868;42.708;23.404;2024-01-30T06:23:48;120.37;;;28.77;;
77701;SDS011;66868;42.708;23.404;2024-01-30T06:26:14;50.23;;;16.50;;
77701;SDS011;66868;42.708;23.404;2024-01-30T06:28:39;47.07;;;13.73;;
77701;SDS011;66868;42.708;23.404;2024-01-30T06:31:05;51.07;;;14.67;;
77701;SDS011;66868;42.708;23.404;2024-01-30T06:33:30;27.37;;;12.97;;
77701;SDS011;66868;42.708;23.404;2024-01-30T06:35:56;32.40;;;12.33;;
77701;SDS011;66868;42.708;23.404;2024-01-30T06:38:21;28.63;;;12.87;;
77701;SDS011;66868;42.708;23.404;2024-01-30T06:40:47;41.30;;;13.47;;
77701;SDS011;66868;42.708;23.404;2024-01-30T06:43:12;29.27;;;12.07;;
77701;SDS011;66868;42.708;23.404;2024-01-30T06:45:37;37.67;;;12.00;;
77701;SDS011;66868;42.708;23.404;2024-01-30T06:48:03;22.37;;;9.80;;
77701;SDS011;66868;42.708;23.404;2024-01-30T06:50:29;18.73;;;9.80;;
77701;SDS011;66868;42.708;23.404;2024-01-30T06:52:54;36.47;;;19.33;;
77701;SDS011;66868;42.708;23.404;2024-01-30T06:55:19;43.07;;;20.47;;
77701;SDS011;66868;42.708;23.404;2024-01-30T06:57:45;46.57;;;16.43;;
77701;SDS011;66868;42.708;23.404;2024-01-30T07:00:11;61.47;;;15.90;;
77701;SDS011;66868;42.708;23.404;2024-01-30T07:02:37;21.93;;;11.50;;
77701;SDS011;66868;42.708;23.404;2024-01-30T07:05:02;28.33;;;11.33;;
77701;SDS011;66868;42.708;23.404;2024-01-30T07:07:30;18.20;;;7.63;;
77701;SDS011;66868;42.708;23.404;2024-01-30T07:09:56;23.13;;;11.77;;
77701;SDS011;66868;42.708;23.404;2024-01-30T07:12:22;39.23;;;16.60;;
77701;SDS011;66868;42.708;23.404;2024-01-30T07:14:49;43.53;;;21.67;;
77701;SDS011;66868;42.708;23.404;2024-01-30T07:17:15;35.40;;;17.23;;
77701;SDS011;66868;42.708;23.404;2024-01-30T07:19:41;42.37;;;17.90;;
77701;SDS011;66868;42.708;23.404;2024-01-30T07:22:06;22.93;;;10.40;;
77701;SDS011;66868;42.708;23.404;2024-01-30T07:24:32;16.87;;;9.13;;
77701;SDS011;66868;42.708;23.404;2024-01-30T07:26:57;27.90;;;9.13;;
77701;SDS011;66868;42.708;23.404;2024-01-30T07:29:22;13.03;;;5.57;;
77701;SDS011;66868;42.708;23.404;2024-01-30T07:31:48;18.83;;;9.30;;
77701;SDS011;66868;42.708;23.404;2024-01-30T07:34:13;17.47;;;6.70;;
77701;SDS011;66868;42.708;23.404;2024-01-30T07:36:39;8.13;;;6.37;;
77701;SDS011;66868;42.708;23.404;2024-01-30T07:39:04;12.77;;;6.47;;
77701;SDS011;66868;42.708;23.404;2024-01-30T07:41:30;11.67;;;6.30;;
77701;SDS011;66868;42.708;23.404;2024-01-30T07:43:55;4.07;;;3.77;;
77701;SDS011;66868;42.708;23.404;2024-01-30T07:46:21;5.37;;;3.83;;
77701;SDS011;66868;42.708;23.404;2024-01-30T07:48:46;17.10;;;4.17;;
77701;SDS011;66868;42.708;23.404;2024-01-30T07:51:12;10.70;;;4.30;;
77701;SDS011;66868;42.708;23.404;2024-01-30T07:53:37;9.10;;;5.17;;
77701;SDS011;66868;42.708;23.404;2024-01-30T07:56:03;13.07;;;5.40;;
77701;SDS011;66868;42.708;23.404;2024-01-30T07:58:29;13.53;;;5.90;;
77701;SDS011;66868;42.708;23.404;2024-01-30T08:00:54;8.37;;;5.17;;
77701;SDS011;66868;42.708;23.404;2024-01-30T08:03:21;12.17;;;4.07;;
77701;SDS011;66868;42.708;23.404;2024-01-30T08:05:47;8.13;;;4.07;;
77701;SDS011;66868;42.708;23.404;2024-01-30T08:08:12;5.50;;;4.07;;
77701;SDS011;66868;42.708;23.404;2024-01-30T08:10:38;6.03;;;3.60;;
77701;SDS011;66868;42.708;23.404;2024-01-30T08:13:03;6.33;;;3.33;;
77701;SDS011;66868;42.708;23.404;2024-01-30T08:15:29;5.90;;;3.90;;
77701;SDS011;66868;42.708;23.404;2024-01-30T08:17:54;7.67;;;4.03;;
77701;SDS011;66868;42.708;23.404;2024-01-30T08:20:23;9.13;;;4.57;;
77701;SDS011;66868;42.708;23.404;2024-01-30T08:22:49;4.43;;;3.60;;
77701;SDS011;66868;42.708;23.404;2024-01-30T08:25:14;3.43;;;3.10;;
77701;SDS011;66868;42.708;23.404;2024-01-30T08:27:40;2.93;;;2.60;;
77701;SDS011;66868;42.708;23.404;2024-01-30T08:30:06;5.10;;;2.93;;
77701;SDS011;66868;42.708;23.404;2024-01-30T08:32:32;3.20;;;2.80;;
77701;SDS011;66868;42.708;23.404;2024-01-30T08:34:57;7.07;;;3.33;;
77701;SDS011;66868;42.708;23.404;2024-01-30T08:37:23;3.00;;;2.80;;
77701;SDS011;66868;42.708;23.404;2024-01-30T08:39:49;5.00;;;2.90;;
77701;SDS011;66868;42.708;23.404;2024-01-30T08:42:14;3.80;;;3.10;;
77701;SDS011;66868;42.708;23.404;2024-01-30T08:44:40;3.23;;;3.03;;
77701;SDS011;66868;42.708;23.404;2024-01-30T08:47:06;5.40;;;4.03;;
77701;SDS011;66868;42.708;23.404;2024-01-30T08:49:31;15.17;;;4.37;;
77701;SDS011;66868;42.708;23.404;2024-01-30T08:51:57;4.30;;;3.90;;
77701;SDS011;66868;42.708;23.404;2024-01-30T08:54:23;3.83;;;3.53;;
77701;SDS011;66868;42.708;23.404;2024-01-30T08:56:49;4.27;;;3.60;;
77701;SDS011;66868;42.708;23.404;2024-01-30T08:59:14;12.23;;;3.73;;
77701;SDS011;66868;42.708;23.404;2024-01-30T09:01:40;14.63;;;3.63;;
77701;SDS011;66868;42.708;23.404;2024-01-30T09:04:05;4.57;;;3.87;;
77701;SDS011;66868;42.708;23.404;2024-01-30T09:06:31;3.97;;;3.67;;
77701;SDS011;66868;42.708;23.404;2024-01-30T09:08:56;3.87;;;3.47;;
77701;SDS011;66868;42.708;23.404;2024-01-30T09:11:23;3.77;;;3.37;;
77701;SDS011;66868;42.708;23.404;2024-01-30T09:13:48;3.57;;;3.10;;
77701;SDS011;66868;42.708;23.404;2024-01-30T09:16:14;3.70;;;3.37;;
77701;SDS011;66868;42.708;23.404;2024-01-30T09:18:41;3.90;;;2.90;;
77701;SDS011;66868;42.708;23.404;2024-01-30T09:21:07;5.87;;;2.90;;
77701;SDS011;66868;42.708;23.404;2024-01-30T09:23:32;3.40;;;3.10;;
77701;SDS011;66868;42.708;23.404;2024-01-30T09:25:58;7.83;;;3.30;;
77701;SDS011;66868;42.708;23.404;2024-01-30T09:28:24;7.60;;;3.20;;
77701;SDS011;66868;42.708;23.404;2024-01-30T09:30:49;6.20;;;2.80;;
77701;SDS011;66868;42.708;23.404;2024-01-30T09:33:15;10.60;;;3.07;;
77701;SDS011;66868;42.708;23.404;2024-01-30T09:35:40;9.53;;;3.77;;
77701;SDS011;66868;42.708;23.404;2024-01-30T09:38:06;3.70;;;3.40;;
77701;SDS011;66868;42.708;23.404;2024-01-30T09:40:31;2.70;;;2.50;;
77701;SDS011;66868;42.708;23.404;2024-01-30T09:42:57;2.60;;;2.40;;
77701;SDS011;66868;42.708;23.404;2024-01-30T09:45:27;3.73;;;3.43;;
77701;SDS011;66868;42.708;23.404;2024-01-30T09:47:52;5.63;;;3.70;;
77701;SDS011;66868;42.708;23.404;2024-01-30T09:50:18;2.30;;;2.20;;
77701;SDS011;66868;42.708;23.404;2024-01-30T09:52:45;4.03;;;3.60;;
77701;SDS011;66868;42.708;23.404;2024-01-30T09:55:11;3.23;;;3.03;;
77701;SDS011;66868;42.708;23.404;2024-01-30T09:57:37;4.53;;;3.00;;
77701;SDS011;66868;42.708;23.404;2024-01-30T10:00:03;2.80;;;2.60;;
77701;SDS011;66868;42.708;23.404;2024-01-30T10:02:32;4.13;;;3.30;;
77701;SDS011;66868;42.708;23.404;2024-01-30T10:04:58;3.27;;;2.90;;
77701;SDS011;66868;42.708;23.404;2024-01-30T10:07:25;2.63;;;2.43;;
77701;SDS011;66868;42.708;23.404;2024-01-30T10:09:50;4.37;;;3.97;;
77701;SDS011;66868;42.708;23.404;2024-01-30T10:12:16;7.70;;;3.47;;
77701;SDS011;66868;42.708;23.404;2024-01-30T10:14:42;5.53;;;3.33;;
77701;SDS011;66868;42.708;23.404;2024-01-30T10:17:08;8.67;;;4.27;;
77701;SDS011;66868;42.708;23.404;2024-01-30T10:19:38;2.83;;;2.43;;
77701;SDS011;66868;42.708;23.404;2024-01-30T10:22:05;3.13;;;2.77;;
77701;SDS011;66868;42.708;23.404;2024-01-30T10:24:30;2.73;;;2.60;;
77701;SDS011;66868;42.708;23.404;2024-01-30T10:26:56;5.20;;;2.80;;
77701;SDS011;66868;42.708;23.404;2024-01-30T10:29:22;2.90;;;2.70;;
77701;SDS011;66868;42.708;23.404;2024-01-30T10:32:04;2.58;;;2.38;;
77701;SDS011;66868;42.708;23.404;2024-01-30T10:34:30;3.10;;;2.80;;
77701;SDS011;66868;42.708;23.404;2024-01-30T10:39:32;2.70;;;2.47;;
77701;SDS011;66868;42.708;23.404;2024-01-30T10:42:04;6.90;;;2.40;;
77701;SDS011;66868;42.708;23.404;2024-01-30T10:44:33;18.50;;;4.15;;
77701;SDS011;66868;42.708;23.404;2024-01-30T10:47:06;6.47;;;2.92;;
77701;SDS011;66868;42.708;23.404;2024-01-30T10:49:36;2.83;;;2.58;;
77701;SDS011;66868;42.708;23.404;2024-01-30T10:52:03;3.40;;;2.35;;
77701;SDS011;66868;42.708;23.404;2024-01-30T10:54:31;8.63;;;2.95;;
77701;SDS011;66868;42.708;23.404;2024-01-30T10:56:57;3.43;;;3.20;;
77701;SDS011;66868;42.708;23.404;2024-01-30T10:59:26;5.15;;;4.50;;
77701;SDS011;66868;42.708;23.404;2024-01-30T11:01:52;8.05;;;4.78;;
77701;SDS011;66868;42.708;23.404;2024-01-30T11:04:18;8.07;;;5.55;;
77701;SDS011;66868;42.708;23.404;2024-01-30T11:06:44;16.50;;;5.60;;
77701;SDS011;66868;42.708;23.404;2024-01-30T11:09:12;3.33;;;3.03;;
77701;SDS011;66868;42.708;23.404;2024-01-30T11:11:49;4.57;;;4.07;;
77701;SDS011;66868;42.708;23.404;2024-01-30T11:14:25;5.38;;;4.07;;
77701;SDS011;66868;42.708;23.404;2024-01-30T11:16:51;5.80;;;4.40;;
77701;SDS011;66868;42.708;23.404;2024-01-30T11:19:22;10.57;;;5.47;;
77701;SDS011;66868;42.708;23.404;2024-01-30T11:21:50;6.40;;;4.30;;
77701;SDS011;66868;42.708;23.404;2024-01-30T11:24:19;3.28;;;2.97;;
77701;SDS011;66868;42.708;23.404;2024-01-30T11:26:47;2.92;;;2.72;;
77701;SDS011;66868;42.708;23.404;2024-01-30T11:29:13;4.87;;;4.00;;
77701;SDS011;66868;42.708;23.404;2024-01-30T11:31:40;4.05;;;3.58;;
77701;SDS011;66868;42.708;23.404;2024-01-30T11:34:05;4.63;;;3.33;;
77701;SDS011;66868;42.708;23.404;2024-01-30T11:36:31;3.47;;;2.95;;
77701;SDS011;66868;42.708;23.404;2024-01-30T11:39:02;3.25;;;2.95;;
77701;SDS011;66868;42.708;23.404;2024-01-30T11:41:28;3.15;;;2.95;;
77701;SDS011;66868;42.708;23.404;2024-01-30T11:43:55;3.65;;;3.38;;
77701;SDS011;66868;42.708;23.404;2024-01-30T11:46:20;4.20;;;3.80;;
77701;SDS011;66868;42.708;23.404;2024-01-30T11:48:46;3.50;;;3.30;;
77701;SDS011;66868;42.708;23.404;2024-01-30T11:51:12;3.63;;;3.33;;
77701;SDS011;66868;42.708;23.404;2024-01-30T11:53:38;2.60;;;2.40;;
77701;SDS011;66868;42.708;23.404;2024-01-30T11:56:06;4.18;;;3.50;;
77701;SDS011;66868;42.708;23.404;2024-01-30T11:58:32;25.92;;;6.70;;
77701;SDS011;66868;42.708;23.404;2024-01-30T12:00:57;5.95;;;4.22;;
77701;SDS011;66868;42.708;23.404;2024-01-30T12:03:23;4.65;;;3.95;;
77701;SDS011;66868;42.708;23.404;2024-01-30T12:05:54;5.75;;;4.25;;
77701;SDS011;66868;42.708;23.404;2024-01-30T12:08:22;3.15;;;2.95;;
77701;SDS011;66868;42.708;23.404;2024-01-30T12:10:54;3.55;;;3.17;;
77701;SDS011;66868;42.708;23.404;2024-01-30T12:13:24;4.35;;;2.97;;
77701;SDS011;66868;42.708;23.404;2024-01-30T12:15:50;5.10;;;3.67;;
77701;SDS011;66868;42.708;23.404;2024-01-30T12:18:18;3.45;;;2.90;;
77701;SDS011;66868;42.708;23.404;2024-01-30T12:20:44;5.32;;;4.05;;
77701;SDS011;66868;42.708;23.404;2024-01-30T12:23:11;3.40;;;3.05;;
77701;SDS011;66868;42.708;23.404;2024-01-30T12:25:37;3.13;;;2.92;;
77701;SDS011;66868;42.708;23.404;2024-01-30T12:28:03;3.08;;;2.78;;
77701;SDS011;66868;42.708;23.404;2024-01-30T12:30:29;5.32;;;2.85;;
77701;SDS011;66868;42.708;23.404;2024-01-30T12:32:55;2.90;;;2.70;;
77701;SDS011;66868;42.708;23.404;2024-01-30T12:35:20;3.58;;;3.35;;
77701;SDS011;66868;42.708;23.404;2024-01-30T12:37:47;3.17;;;2.80;;
77701;SDS011;66868;42.708;23.404;2024-01-30T12:40:13;3.60;;;2.88;;
77701;SDS011;66868;42.708;23.404;2024-01-30T12:42:42;4.13;;;3.78;;
77701;SDS011;66868;42.708;23.404;2024-01-30T12:45:13;7.07;;;4.70;;
77701;SDS011;66868;42.708;23.404;2024-01-30T12:47:40;3.42;;;3.22;;
77701;SDS011;66868;42.708;23.404;2024-01-30T12:50:06;6.15;;;4.05;;
77701;SDS011;66868;42.708;23.404;2024-01-30T12:52:32;4.82;;;2.78;;
77701;SDS011;66868;42.708;23.404;2024-01-30T12:54:58;8.02;;;3.10;;
77701;SDS011;66868;42.708;23.404;2024-01-30T12:57:23;5.18;;;3.60;;
77701;SDS011;66868;42.708;23.404;2024-01-30T12:59:49;5.90;;;4.07;;
77701;SDS011;66868;42.708;23.404;2024-01-30T13:02:14;4.40;;;3.55;;
77701;SDS011;66868;42.708;23.404;2024-01-30T13:04:41;5.10;;;3.38;;
77701;SDS011;66868;42.708;23.404;2024-01-30T13:07:07;4.30;;;3.95;;
77701;SDS011;66868;42.708;23.404;2024-01-30T13:09:32;4.65;;;3.63;;
77701;SDS011;66868;42.708;23.404;2024-01-30T13:11:58;3.42;;;3.22;;
77701;SDS011;66868;42.708;23.404;2024-01-30T13:14:25;4.70;;;4.07;;
77701;SDS011;66868;42.708;23.404;2024-01-30T13:16:50;8.35;;;3.72;;
77701;SDS011;66868;42.708;23.404;2024-01-30T13:19:16;8.13;;;3.33;;
77701;SDS011;66868;42.708;23.404;2024-01-30T13:21:42;7.43;;;3.60;;
77701;SDS011;66868;42.708;23.404;2024-01-30T13:24:08;3.92;;;3.72;;
77701;SDS011;66868;42.708;23.404;2024-01-30T13:26:34;7.05;;;4.68;;
77701;SDS011;66868;42.708;23.404;2024-01-30T13:29:00;11.43;;;5.32;;
77701;SDS011;66868;42.708;23.404;2024-01-30T13:31:26;4.63;;;3.90;;
77701;SDS011;66868;42.708;23.404;2024-01-30T13:33:52;4.22;;;3.95;;
77701;SDS011;66868;42.708;23.404;2024-01-30T13:36:18;4.00;;;3.70;;
77701;SDS011;66868;42.708;23.404;2024-01-30T13:38:44;6.50;;;4.25;;
77701;SDS011;66868;42.708;23.404;2024-01-30T13:41:09;5.72;;;4.70;;
77701;SDS011;66868;42.708;23.404;2024-01-30T13:43:35;8.07;;;4.45;;
77701;SDS011;66868;42.708;23.404;2024-01-30T13:46:00;13.80;;;3.58;;
77701;SDS011;66868;42.708;23.404;2024-01-30T13:48:26;6.97;;;5.43;;
77701;SDS011;66868;42.708;23.404;2024-01-30T13:50:51;4.90;;;4.50;;
77701;SDS011;66868;42.708;23.404;2024-01-30T13:53:18;11.38;;;5.18;;
77701;SDS011;66868;42.708;23.404;2024-01-30T13:55:43;6.53;;;3.55;;
77701;SDS011;66868;42.708;23.404;2024-01-30T13:58:09;10.32;;;5.35;;
77701;SDS011;66868;42.708;23.404;2024-01-30T14:00:34;4.85;;;4.45;;
77701;SDS011;66868;42.708;23.404;2024-01-30T14:03:00;4.60;;;3.50;;
77701;SDS011;66868;42.708;23.404;2024-01-30T14:05:26;5.00;;;4.50;;
77701;SDS011;66868;42.708;23.404;2024-01-30T14:07:53;3.65;;;3.47;;
77701;SDS011;66868;42.708;23.404;2024-01-30T14:10:19;5.03;;;4.63;;
77701;SDS011;66868;42.708;23.404;2024-01-30T14:12:45;4.65;;;4.35;;
77701;SDS011;66868;42.708;23.404;2024-01-30T14:15:11;5.13;;;4.72;;
77701;SDS011;66868;42.708;23.404;2024-01-30T14:17:37;4.47;;;4.07;;
77701;SDS011;66868;42.708;23.404;2024-01-30T14:20:03;6.25;;;4.55;;
77701;SDS011;66868;42.708;23.404;2024-01-30T14:22:30;6.35;;;4.55;;
77701;SDS011;66868;42.708;23.404;2024-01-30T14:24:57;5.82;;;4.85;;
77701;SDS011;66868;42.708;23.404;2024-01-30T14:27:22;6.38;;;5.70;;